createdAt,value
2022-07-26T00:00:55.428Z,100657.22
2022-07-26T00:03:22.003Z,100664.22
2022-07-26T00:05:48.555Z,100664.31
2022-07-26T00:08:15.126Z,100668.03
2022-07-26T00:10:44.677Z,100666.13
2022-07-26T00:13:11.680Z,100657.41
2022-07-26T00:15:39.012Z,100665.28
2022-07-26T00:18:06.256Z,100659.81
2022-07-26T00:20:38.364Z,100657.03
2022-07-26T00:23:05.443Z,100660.06
2022-07-26T00:25:32.100Z,100658.34
2022-07-26T00:27:58.914Z,100661.34
2022-07-26T00:30:25.457Z,100660.78
2022-07-26T00:32:52.905Z,100664.72
2022-07-26T00:35:20.326Z,100660.50
2022-07-26T00:37:47.660Z,100661.47
2022-07-26T00:40:15.572Z,100655.19
2022-07-26T00:42:42.667Z,100662.59
2022-07-26T00:45:10.462Z,100664.31
2022-07-26T00:47:37.101Z,100667.25
2022-07-26T00:50:07.598Z,100669.06
2022-07-26T00:52:34.172Z,100665.84
2022-07-26T00:55:00.694Z,100663.09
2022-07-26T00:57:27.222Z,100665.47
2022-07-26T00:59:53.720Z,100668.81
2022-07-26T01:02:20.738Z,100673.53
2022-07-26T01:04:47.264Z,100668.22
2022-07-26T01:07:15.725Z,100661.47
2022-07-26T01:09:43.500Z,100660.31
2022-07-26T01:12:11.337Z,100665.47
2022-07-26T01:14:38.117Z,100662.75
2022-07-26T01:17:04.643Z,100660.50
2022-07-26T01:19:31.181Z,100659.13
2022-07-26T01:21:57.693Z,100662.47
2022-07-26T01:24:24.179Z,100664.13
2022-07-26T01:26:50.632Z,100663.31
2022-07-26T01:29:17.229Z,100667.78
2022-07-26T01:31:43.740Z,100663.59
2022-07-26T01:34:10.572Z,100665.72
2022-07-26T01:36:37.518Z,100667.53
2022-07-26T01:39:06.688Z,100665.63
2022-07-26T01:41:37.988Z,100661.44
2022-07-26T01:44:06.498Z,100660.31
2022-07-26T01:46:34.452Z,100667.63
2022-07-26T01:49:01.807Z,100670.78
2022-07-26T01:51:28.621Z,100665.13
2022-07-26T01:53:55.245Z,100653.63
2022-07-26T01:56:21.745Z,100664.63
2022-07-26T01:58:48.245Z,100660.69
2022-07-26T02:01:14.767Z,100668.19
2022-07-26T02:03:41.342Z,100668.19
2022-07-26T02:06:08.159Z,100675.06
2022-07-26T02:08:34.652Z,100672.41
2022-07-26T02:11:03.708Z,100679.53
2022-07-26T02:13:37.586Z,100678.50
2022-07-26T02:16:06.694Z,100673.59
2022-07-26T02:18:33.783Z,100684.50
2022-07-26T02:21:01.479Z,100678.47
2022-07-26T02:23:28.631Z,100676.09
2022-07-26T02:25:55.702Z,100679.16
2022-07-26T02:28:23.557Z,100679.25
2022-07-26T02:30:50.549Z,100678.44
2022-07-26T02:33:18.356Z,100677.53
2022-07-26T02:35:46.149Z,100678.97
2022-07-26T02:38:15.029Z,100677.34
2022-07-26T02:40:42.225Z,100678.28
2022-07-26T02:43:10.170Z,100676.22
2022-07-26T02:45:37.364Z,100675.72
2022-07-26T02:48:04.479Z,100689.22
2022-07-26T02:50:32.096Z,100689.72
2022-07-26T02:52:58.619Z,100687.25
2022-07-26T02:55:26.886Z,100681.84
2022-07-26T02:57:53.532Z,100686.03
2022-07-26T03:00:23.716Z,100690.97
2022-07-26T03:02:51.453Z,100687.47
2022-07-26T03:05:18.443Z,100692.56
2022-07-26T03:07:45.091Z,100696.38
2022-07-26T03:10:11.552Z,100699.78
2022-07-26T03:12:38.119Z,100702.09
2022-07-26T03:15:05.876Z,100699.09
2022-07-26T03:17:32.641Z,100699.88
2022-07-26T03:19:59.154Z,100706.22
2022-07-26T03:22:25.615Z,100707.47
2022-07-26T03:24:52.166Z,100706.50
2022-07-26T03:27:18.641Z,100701.94
2022-07-26T03:29:45.121Z,100701.94
2022-07-26T03:32:11.674Z,100717.84
2022-07-26T03:34:38.195Z,100712.53
2022-07-26T03:37:04.922Z,100713.22
2022-07-26T03:39:31.559Z,100707.66
2022-07-26T03:41:58.027Z,100711.88
2022-07-26T03:44:24.504Z,100721.41
2022-07-26T03:46:50.954Z,100727.81
2022-07-26T03:49:17.620Z,100733.28
2022-07-26T03:51:44.416Z,100728.84
2022-07-26T03:54:11.387Z,100733.59
2022-07-26T03:56:38.390Z,100737.25
2022-07-26T03:59:07.829Z,100739.06
2022-07-26T04:01:35.566Z,100741.16
2022-07-26T04:04:02.129Z,100736.00
2022-07-26T04:06:29.901Z,100736.63
2022-07-26T04:08:56.598Z,100738.34
2022-07-26T04:11:27.708Z,100744.66
2022-07-26T04:13:55.560Z,100740.75
2022-07-26T04:16:22.280Z,100750.34
2022-07-26T04:18:48.869Z,100751.44
2022-07-26T04:21:15.551Z,100757.66
2022-07-26T04:23:42.080Z,100745.13
2022-07-26T04:26:08.615Z,100748.25
2022-07-26T04:28:35.233Z,100739.19
2022-07-26T04:31:02.056Z,100748.09
2022-07-26T04:33:28.554Z,100747.16
2022-07-26T04:35:55.105Z,100752.78
2022-07-26T04:38:21.606Z,100757.53
2022-07-26T04:40:50.414Z,100756.50
2022-07-26T04:43:17.685Z,100757.34
2022-07-26T04:45:48.337Z,100758.94
2022-07-26T04:48:16.099Z,100759.16
2022-07-26T04:50:43.503Z,100759.16
2022-07-26T04:53:11.188Z,100761.09
2022-07-26T04:55:38.550Z,100761.81
2022-07-26T04:58:05.418Z,100766.03
2022-07-26T05:00:31.979Z,100764.69
2022-07-26T05:03:00.053Z,100765.56
2022-07-26T05:05:29.312Z,100763.28
2022-07-26T05:07:59.014Z,100756.25
2022-07-26T05:10:35.373Z,100766.63
2022-07-26T05:13:04.431Z,100766.63
2022-07-26T05:15:35.028Z,100774.50
2022-07-26T05:18:06.864Z,100766.69
2022-07-26T05:20:34.605Z,100771.59
2022-07-26T05:23:01.177Z,100768.00
2022-07-26T05:25:27.774Z,100762.41
2022-07-26T05:27:54.333Z,100771.91
2022-07-26T05:30:21.272Z,100774.13
2022-07-26T05:32:47.805Z,100769.09
2022-07-26T05:35:14.689Z,100767.19
2022-07-26T05:37:41.212Z,100765.22
2022-07-26T05:40:08.280Z,100765.94
2022-07-26T05:42:34.865Z,100765.78
2022-07-26T05:45:01.486Z,100770.78
2022-07-26T05:47:27.981Z,100767.97
2022-07-26T05:49:55.227Z,100775.38
2022-07-26T05:52:36.454Z,100776.47
2022-07-26T05:55:03.101Z,100775.25
2022-07-26T05:57:29.593Z,100772.72
2022-07-26T05:59:56.111Z,100766.16
2022-07-26T06:02:22.761Z,100768.28
2022-07-26T06:04:49.329Z,100762.03
2022-07-26T06:07:16.049Z,100767.28
2022-07-26T06:09:42.914Z,100773.19
2022-07-26T06:12:09.599Z,100772.91
2022-07-26T06:14:36.324Z,100773.66
2022-07-26T06:17:04.410Z,100773.53
2022-07-26T06:19:31.821Z,100783.13
2022-07-26T06:21:58.370Z,100783.91
2022-07-26T06:24:24.906Z,100785.91
2022-07-26T06:26:56.814Z,100786.25
2022-07-26T06:29:24.468Z,100780.56
2022-07-26T06:31:58.731Z,100782.75
2022-07-26T06:34:25.357Z,100793.44
2022-07-26T06:36:51.869Z,100789.97
2022-07-26T06:39:18.341Z,100806.69
2022-07-26T06:41:44.811Z,100799.81
2022-07-26T06:44:11.856Z,100804.94
2022-07-26T06:46:38.541Z,100805.69
2022-07-26T06:49:05.612Z,100805.59
2022-07-26T06:51:33.799Z,100808.75
2022-07-26T06:54:01.011Z,100805.72
2022-07-26T06:56:27.735Z,100811.78
2022-07-26T06:58:55.315Z,100811.41
2022-07-26T07:01:59.562Z,100812.81
2022-07-26T07:04:09.284Z,100819.44
2022-07-26T07:06:36.120Z,100813.28
2022-07-26T07:09:02.648Z,100831.00
2022-07-26T07:11:29.512Z,100815.28
2022-07-26T07:13:56.318Z,100819.34
2022-07-26T07:16:22.905Z,100817.38
2022-07-26T07:18:51.271Z,100829.72
2022-07-26T07:21:17.785Z,100825.28
2022-07-26T07:23:44.351Z,100831.84
2022-07-26T07:26:10.987Z,100829.13
2022-07-26T07:28:40.514Z,100835.59
2022-07-26T07:31:07.057Z,100832.53
2022-07-26T07:33:43.716Z,100838.09
2022-07-26T07:36:20.098Z,100840.88
2022-07-26T07:38:47.075Z,100838.00
2022-07-26T07:41:13.673Z,100845.72
2022-07-26T07:43:40.181Z,100841.91
2022-07-26T07:46:07.000Z,100845.50
2022-07-26T07:48:33.508Z,100843.69
2022-07-26T07:51:00.122Z,100849.53
2022-07-26T07:53:26.624Z,100847.50
2022-07-26T07:55:55.266Z,100858.97
2022-07-26T07:58:22.115Z,100867.78
2022-07-26T08:00:48.822Z,100859.81
2022-07-26T08:03:18.564Z,100861.72
2022-07-26T08:05:46.933Z,100858.56
2022-07-26T08:08:16.970Z,100852.75
2022-07-26T08:10:49.100Z,100857.22
2022-07-26T08:13:21.254Z,100859.88
2022-07-26T08:15:49.540Z,100859.78
2022-07-26T08:18:16.432Z,100849.78
2022-07-26T08:20:43.499Z,100847.72
2022-07-26T08:23:10.340Z,100852.44
2022-07-26T08:25:42.601Z,100848.41
2022-07-26T08:28:37.622Z,100849.94
2022-07-26T08:31:03.631Z,100857.69
2022-07-26T08:33:30.200Z,100864.09
2022-07-26T08:35:58.593Z,100858.00
2022-07-26T08:38:25.518Z,100858.28
2022-07-26T08:40:52.198Z,100866.41
2022-07-26T08:43:18.699Z,100864.59
2022-07-26T08:45:47.246Z,100862.13
2022-07-26T08:48:18.336Z,100860.13
2022-07-26T08:50:45.469Z,100867.56
2022-07-26T08:53:13.227Z,100873.63
2022-07-26T08:56:05.493Z,100868.41
2022-07-26T08:58:26.677Z,100875.34
2022-07-26T09:01:13.884Z,100868.03
2022-07-26T09:03:42.573Z,100852.72
2022-07-26T09:06:12.210Z,100862.31
2022-07-26T09:08:38.824Z,100872.53
2022-07-26T09:11:23.826Z,100862.94
2022-07-26T09:13:55.796Z,100856.34
2022-07-26T09:16:22.513Z,100864.69
2022-07-26T09:18:49.173Z,100860.59
2022-07-26T09:21:38.723Z,100863.31
2022-07-26T09:24:05.723Z,100870.22
2022-07-26T09:26:32.271Z,100866.03
2022-07-26T09:29:10.451Z,100862.94
2022-07-26T09:31:38.562Z,100865.06
2022-07-26T09:34:06.937Z,100870.84
2022-07-26T09:36:33.836Z,100869.34
2022-07-26T09:39:02.404Z,100866.69
2022-07-26T09:41:36.938Z,100870.53
2022-07-26T09:44:20.764Z,100870.13
2022-07-26T09:46:58.868Z,100869.25
2022-07-26T09:49:32.522Z,100869.25
2022-07-26T09:52:21.720Z,100871.84
2022-07-26T09:54:49.609Z,100867.09
2022-07-26T09:57:18.539Z,100868.06
2022-07-26T09:59:46.329Z,100880.31
2022-07-26T10:02:14.126Z,100876.91
2022-07-26T10:04:42.290Z,100875.56
2022-07-26T10:07:10.170Z,100888.53
2022-07-26T10:09:45.209Z,100880.31
2022-07-26T10:12:15.726Z,100877.50
2022-07-26T10:14:43.295Z,100878.75
2022-07-26T10:17:29.261Z,100884.47
2022-07-26T10:19:58.895Z,100888.03
2022-07-26T10:22:26.781Z,100889.59
2022-07-26T10:24:58.598Z,100895.94
2022-07-26T10:27:39.901Z,100899.06
2022-07-26T10:30:33.758Z,100894.31
2022-07-26T10:33:04.037Z,100900.63
2022-07-26T10:35:36.752Z,100885.06
2022-07-26T10:38:03.279Z,100879.47
2022-07-26T10:40:30.300Z,100883.66
2022-07-26T10:46:16.121Z,100883.50
2022-07-26T10:48:59.177Z,100885.13
2022-07-26T10:51:28.478Z,100885.38
2022-07-26T10:54:12.166Z,100884.06
2022-07-26T10:56:39.823Z,100886.22
2022-07-26T10:59:06.819Z,100879.75
2022-07-26T11:01:42.129Z,100887.03
2022-07-26T11:04:19.076Z,100883.38
2022-07-26T11:06:47.537Z,100885.38
2022-07-26T11:09:14.060Z,100920.03
2022-07-26T11:11:46.984Z,100916.78
2022-07-26T11:14:16.698Z,100932.69
2022-07-26T11:16:50.294Z,100945.28
2022-07-26T11:19:23.270Z,100945.88
2022-07-26T11:21:55.400Z,100957.75
2022-07-26T11:24:22.152Z,100940.09
2022-07-26T11:26:49.128Z,100942.75
2022-07-26T11:29:17.475Z,100949.78
2022-07-26T11:31:51.420Z,100942.38
2022-07-26T11:34:33.334Z,100949.66
2022-07-26T11:37:04.705Z,100958.97
2022-07-26T11:39:34.573Z,100949.41
2022-07-26T11:42:04.192Z,100938.59
2022-07-26T11:44:31.448Z,100944.00
2022-07-26T11:46:58.504Z,100954.94
2022-07-26T11:52:25.492Z,100949.03
2022-07-26T11:54:53.540Z,100941.84
2022-07-26T11:57:20.623Z,100932.19
2022-07-26T11:59:50.437Z,100957.75
2022-07-26T12:02:17.420Z,100940.94
2022-07-26T12:04:44.868Z,100938.06
2022-07-26T12:07:16.960Z,100939.28
2022-07-26T12:09:46.224Z,100933.34
2022-07-26T12:12:21.480Z,100949.03
2022-07-26T12:15:01.178Z,100941.06
2022-07-26T12:17:34.940Z,100949.25
2022-07-26T12:20:18.377Z,100938.88
2022-07-26T12:22:56.164Z,100917.22
2022-07-26T12:25:27.532Z,100944.72
2022-07-26T12:27:54.460Z,100946.78
2022-07-26T12:30:21.513Z,100942.75
2022-07-26T12:32:51.419Z,100952.78
2022-07-26T12:35:29.760Z,100940.59
2022-07-26T12:37:57.151Z,100946.59
2022-07-26T12:40:39.472Z,100938.31
2022-07-26T12:43:06.307Z,100935.81
2022-07-26T12:45:34.792Z,100930.09
2022-07-26T12:48:03.727Z,100935.16
2022-07-26T12:50:31.703Z,100933.53
2022-07-26T12:53:04.634Z,100943.06
2022-07-26T12:55:31.745Z,100938.47
2022-07-26T12:57:59.455Z,100933.63
2022-07-26T13:00:26.359Z,100928.72
2022-07-26T13:02:55.603Z,100936.72
2022-07-26T13:05:22.523Z,100937.94
2022-07-26T13:07:49.135Z,100929.66
2022-07-26T13:10:33.074Z,100925.56
2022-07-26T13:13:00.930Z,100923.00
2022-07-26T13:15:36.398Z,100923.25
2022-07-26T13:18:08.502Z,100932.44
2022-07-26T13:20:38.430Z,100933.72
2022-07-26T13:23:05.917Z,100930.63
2022-07-26T13:25:39.685Z,100931.28
2022-07-26T13:28:07.807Z,100935.97
2022-07-26T13:30:36.433Z,100924.88
2022-07-26T13:33:03.075Z,100931.34
2022-07-26T13:35:29.552Z,100926.47
2022-07-26T13:37:56.048Z,100918.09
2022-07-26T13:40:25.291Z,100926.28
2022-07-26T13:42:54.098Z,100918.28
2022-07-26T13:45:20.718Z,100919.34
2022-07-26T13:47:47.297Z,100913.84
2022-07-26T13:50:13.788Z,100923.53
2022-07-26T13:52:40.332Z,100907.84
2022-07-26T13:55:07.173Z,100917.44
2022-07-26T13:57:48.052Z,100924.09
2022-07-26T14:00:20.331Z,100924.19
2022-07-26T14:02:47.000Z,100928.00
2022-07-26T14:05:13.650Z,100939.28
2022-07-26T14:07:42.401Z,100941.16
2022-07-26T14:10:09.353Z,100934.09
2022-07-26T14:12:37.179Z,100939.63
2022-07-26T14:15:11.283Z,100938.06
2022-07-26T14:17:39.988Z,100937.16
2022-07-26T14:20:07.049Z,100942.63
2022-07-26T14:22:33.721Z,100947.91
2022-07-26T14:25:00.354Z,100948.06
2022-07-26T14:27:26.869Z,100956.22
2022-07-26T14:29:53.441Z,100960.78
2022-07-26T14:32:22.208Z,100966.03
2022-07-26T14:34:49.642Z,100959.84
2022-07-26T14:37:42.484Z,100965.84
2022-07-26T14:40:07.282Z,100974.16
2022-07-26T14:42:34.088Z,100988.75
2022-07-26T14:45:00.618Z,100975.19
2022-07-26T14:47:27.150Z,100981.81
2022-07-26T14:49:53.615Z,100973.72
2022-07-26T14:52:20.194Z,100980.00
2022-07-26T14:54:46.755Z,100984.34
2022-07-26T14:57:13.226Z,100985.19
2022-07-26T14:59:39.681Z,100972.47
2022-07-26T15:02:06.376Z,100977.72
2022-07-26T15:04:33.167Z,100988.59
2022-07-26T15:06:59.855Z,100995.19
2022-07-26T15:09:26.375Z,100994.25
2022-07-26T15:11:53.089Z,101002.44
2022-07-26T15:14:19.886Z,100983.84
2022-07-26T15:16:46.486Z,100993.63
2022-07-26T15:19:13.104Z,100982.84
2022-07-26T15:21:39.692Z,100992.03
2022-07-26T15:24:06.464Z,100994.34
2022-07-26T15:26:32.945Z,100985.25
2022-07-26T15:28:59.460Z,100980.72
2022-07-26T15:31:37.045Z,100983.03
2022-07-26T15:34:07.370Z,100983.19
2022-07-26T15:36:34.170Z,100982.94
2022-07-26T15:39:15.619Z,100990.56
2022-07-26T15:41:43.057Z,100993.94
2022-07-26T15:44:10.481Z,100988.97
2022-07-26T15:46:38.960Z,100995.44
2022-07-26T15:49:06.720Z,100990.75
2022-07-26T15:51:33.559Z,100993.59
2022-07-26T15:54:00.296Z,100981.03
2022-07-26T15:56:26.795Z,100990.94
2022-07-26T15:58:53.345Z,100991.03
2022-07-26T16:01:19.930Z,100985.91
2022-07-26T16:03:47.812Z,100994.50
2022-07-26T16:06:14.358Z,100990.31
2022-07-26T16:08:58.934Z,100997.22
2022-07-26T16:11:30.919Z,100994.66
2022-07-26T16:14:01.136Z,100979.88
2022-07-26T16:16:29.521Z,100988.63
2022-07-26T16:18:56.388Z,100989.19
2022-07-26T16:21:22.995Z,100978.75
2022-07-26T16:23:50.903Z,100984.22
2022-07-26T16:26:17.837Z,100989.13
2022-07-26T16:28:44.395Z,100999.47
2022-07-26T16:31:10.927Z,100989.88
2022-07-26T16:33:37.794Z,100989.25
2022-07-26T16:36:12.314Z,100992.16
2022-07-26T16:38:38.786Z,100988.41
2022-07-26T16:41:05.295Z,100988.53
2022-07-26T16:43:31.855Z,100987.34
2022-07-26T16:45:58.304Z,100998.31
2022-07-26T16:48:24.796Z,100991.53
2022-07-26T16:50:51.322Z,100989.28
2022-07-26T16:53:17.810Z,100984.34
2022-07-26T16:55:45.315Z,100984.16
2022-07-26T16:58:11.794Z,100979.22
2022-07-26T17:00:38.359Z,100985.81
2022-07-26T17:03:05.128Z,100986.56
2022-07-26T17:05:31.698Z,100984.66
2022-07-26T17:07:58.266Z,100986.56
2022-07-26T17:10:25.748Z,100982.13
2022-07-26T17:12:52.427Z,100988.56
2022-07-26T17:15:18.931Z,100988.16
2022-07-26T17:17:48.650Z,100984.25
2022-07-26T17:20:16.280Z,100989.16
2022-07-26T17:22:42.821Z,100984.78
2022-07-26T17:25:09.821Z,100986.00
2022-07-26T17:27:36.683Z,100993.16
2022-07-26T17:30:07.180Z,100999.56
2022-07-26T17:32:34.371Z,100990.41
2022-07-26T17:35:01.066Z,100984.03
2022-07-26T17:37:27.709Z,100997.09
2022-07-26T17:39:55.335Z,100994.44
2022-07-26T17:42:24.103Z,101003.94
2022-07-26T17:44:53.382Z,100994.09
2022-07-26T17:47:29.243Z,101010.78
2022-07-26T17:50:35.261Z,101016.06
2022-07-26T17:52:53.632Z,101010.75
2022-07-26T17:55:20.852Z,101018.63
2022-07-26T17:57:49.694Z,101023.44
2022-07-26T18:00:21.325Z,101025.28
2022-07-26T18:02:48.449Z,101022.28
2022-07-26T18:05:15.348Z,101016.66
2022-07-26T18:07:41.997Z,101026.56
2022-07-26T18:10:10.089Z,101019.56
2022-07-26T18:12:36.692Z,101014.53
2022-07-26T18:15:03.326Z,101019.97
2022-07-26T18:17:29.970Z,101020.19
2022-07-26T18:19:56.428Z,101020.56
2022-07-26T18:22:23.347Z,101022.91
2022-07-26T18:24:50.006Z,101013.16
2022-07-26T18:27:16.484Z,101010.72
2022-07-26T18:29:43.023Z,101023.03
2022-07-26T18:32:09.566Z,101019.38
2022-07-26T18:34:36.111Z,101024.22
2022-07-26T18:37:02.823Z,101022.09
2022-07-26T18:39:32.582Z,101021.16
2022-07-26T18:41:59.579Z,101018.34
2022-07-26T18:44:26.045Z,101023.34
2022-07-26T18:46:52.742Z,101019.28
2022-07-26T18:49:20.086Z,101026.41
2022-07-26T18:51:48.765Z,101037.66
2022-07-26T18:54:16.524Z,101034.94
2022-07-26T18:56:43.665Z,101030.13
2022-07-26T18:59:10.467Z,101036.53
2022-07-26T19:01:37.358Z,101030.63
2022-07-26T19:04:07.080Z,101030.47
2022-07-26T19:06:34.674Z,101036.47
2022-07-26T19:09:01.280Z,101023.56
2022-07-26T19:11:29.519Z,101035.78
2022-07-26T19:13:56.041Z,101041.69
2022-07-26T19:16:22.790Z,101043.28
2022-07-26T19:18:52.735Z,101040.97
2022-07-26T19:21:22.202Z,101048.72
2022-07-26T19:23:48.690Z,101049.97
2022-07-26T19:26:15.161Z,101045.41
2022-07-26T19:28:41.884Z,101049.22
2022-07-26T19:31:08.486Z,101049.97
2022-07-26T19:33:34.943Z,101056.34
2022-07-26T19:36:01.611Z,101050.09
2022-07-26T19:38:28.152Z,101053.56
2022-07-26T19:40:55.248Z,101054.31
2022-07-26T19:43:22.654Z,101058.69
2022-07-26T19:45:49.219Z,101065.88
2022-07-26T19:48:15.769Z,101064.75
2022-07-26T19:50:42.542Z,101069.06
2022-07-26T19:53:09.006Z,101076.69
2022-07-26T19:55:38.254Z,101081.66
2022-07-26T19:58:05.012Z,101083.16
2022-07-26T20:00:31.492Z,101078.78
2022-07-26T20:02:58.066Z,101079.13
2022-07-26T20:05:24.628Z,101087.31
2022-07-26T20:07:51.365Z,101082.16
2022-07-26T20:10:17.993Z,101088.47
2022-07-26T20:12:44.580Z,101098.72
2022-07-26T20:15:14.237Z,101092.34
2022-07-26T20:17:41.381Z,101089.63
2022-07-26T20:20:09.666Z,101102.53
2022-07-26T20:22:36.519Z,101098.97
2022-07-26T20:25:03.076Z,101110.34
2022-07-26T20:27:29.622Z,101101.69
2022-07-26T20:30:00.753Z,101101.72
2022-07-26T20:32:27.708Z,101094.16
2022-07-26T20:34:54.214Z,101095.72
2022-07-26T20:37:20.785Z,101107.69
2022-07-26T20:39:47.294Z,101103.41
2022-07-26T20:42:21.451Z,101100.66
2022-07-26T20:44:48.756Z,101109.69
2022-07-26T20:47:15.329Z,101113.50
2022-07-26T20:49:41.806Z,101111.22
2022-07-26T20:52:08.296Z,101114.53
2022-07-26T20:54:34.795Z,101127.06
2022-07-26T20:57:04.362Z,101126.28
2022-07-26T20:59:32.367Z,101126.41
2022-07-26T21:01:59.022Z,101129.13
2022-07-26T21:04:25.846Z,101129.22
2022-07-26T21:06:52.763Z,101136.50
2022-07-26T21:09:19.846Z,101141.72
2022-07-26T21:11:46.751Z,101137.44
2022-07-26T21:14:13.327Z,101150.03
2022-07-26T21:16:39.888Z,101148.81
2022-07-26T21:19:06.486Z,101148.44
2022-07-26T21:21:34.194Z,101161.69
2022-07-26T21:24:00.809Z,101152.88
2022-07-26T21:26:27.265Z,101155.88
2022-07-26T21:28:53.737Z,101151.63
2022-07-26T21:31:21.008Z,101150.31
2022-07-26T21:33:47.541Z,101156.72
2022-07-26T21:36:14.350Z,101158.50
2022-07-26T21:38:41.654Z,101161.31
2022-07-26T21:41:08.353Z,101159.44
2022-07-26T21:43:34.840Z,101165.28
2022-07-26T21:46:02.782Z,101167.63
2022-07-26T21:48:29.995Z,101167.19
2022-07-26T21:50:56.513Z,101167.00
2022-07-26T21:53:23.003Z,101162.28
2022-07-26T21:55:49.545Z,101167.41
2022-07-26T21:58:16.092Z,101174.59
2022-07-26T22:00:43.208Z,101170.97
2022-07-26T22:03:11.729Z,101171.75
2022-07-26T22:05:38.307Z,101176.31
2022-07-26T22:08:14.191Z,101179.03
2022-07-26T22:10:44.554Z,101179.81
2022-07-26T22:13:12.156Z,101179.03
2022-07-26T22:15:38.690Z,101178.81
2022-07-26T22:18:06.002Z,101171.84
2022-07-26T22:20:34.338Z,101174.06
2022-07-26T22:23:03.604Z,101184.09
2022-07-26T22:25:31.570Z,101184.88
2022-07-26T22:27:58.704Z,101182.38
2022-07-26T22:30:28.326Z,101183.97
2022-07-26T22:32:59.944Z,101187.22
2022-07-26T22:35:32.369Z,101186.31
2022-07-26T22:38:10.232Z,101192.78
2022-07-26T22:40:38.678Z,101180.19
2022-07-26T22:43:06.304Z,101185.25
2022-07-26T22:45:33.740Z,101183.66
2022-07-26T22:48:01.847Z,101182.97
2022-07-26T22:50:29.094Z,101186.19
2022-07-26T22:52:56.254Z,101188.09
2022-07-26T22:55:23.043Z,101187.84
2022-07-26T22:57:49.763Z,101189.63
2022-07-26T23:00:18.304Z,101183.34
2022-07-26T23:02:44.968Z,101190.22
2022-07-26T23:05:11.991Z,101187.63
2022-07-26T23:07:38.787Z,101179.84
2022-07-26T23:10:09.053Z,101192.22
2022-07-26T23:12:36.748Z,101196.50
2022-07-26T23:15:05.599Z,101195.22
2022-07-26T23:17:32.241Z,101199.13
2022-07-26T23:19:58.767Z,101199.91
2022-07-26T23:22:25.387Z,101193.97
2022-07-26T23:24:51.847Z,101195.44
2022-07-26T23:27:20.274Z,101191.53
2022-07-26T23:29:48.019Z,101193.13
2022-07-26T23:32:15.654Z,101185.53
2022-07-26T23:34:42.165Z,101192.66
2022-07-26T23:37:08.752Z,101191.66
2022-07-26T23:39:35.299Z,101187.09
2022-07-26T23:42:02.938Z,101189.47
2022-07-26T23:44:33.146Z,101184.84
2022-07-26T23:46:59.714Z,101185.63
2022-07-26T23:49:26.597Z,101184.97
2022-07-26T23:51:53.247Z,101182.44
2022-07-26T23:54:20.146Z,101180.81
2022-07-26T23:56:47.435Z,101171.28
2022-07-26T23:59:14.573Z,101184.34
